sensor_id;sensor_type;location;lat;lon;timestamp;P1;durP1;ratioP1;P2;durP2;ratioP2
75386;SDS011;63966;47.914;22.266;2023-08-17T00:01:35;23.03;;;15.97;;
75386;SDS011;63966;47.914;22.266;2023-08-17T00:04:40;22.10;;;15.95;;
75386;SDS011;63966;47.914;22.266;2023-08-17T00:07:43;23.15;;;15.52;;
75386;SDS011;63966;47.914;22.266;2023-08-17T00:10:46;22.15;;;15.95;;
75386;SDS011;63966;47.914;22.266;2023-08-17T00:13:50;24.60;;;15.80;;
75386;SDS011;63966;47.914;22.266;2023-08-17T00:16:53;23.87;;;16.33;;
75386;SDS011;63966;47.914;22.266;2023-08-17T00:19:57;23.35;;;16.42;;
75386;SDS011;63966;47.914;22.266;2023-08-17T00:23:00;19.80;;;15.63;;
75386;SDS011;63966;47.914;22.266;2023-08-17T00:26:04;18.88;;;15.20;;
75386;SDS011;63966;47.914;22.266;2023-08-17T00:29:07;19.60;;;15.27;;
75386;SDS011;63966;47.914;22.266;2023-08-17T00:32:11;28.37;;;16.70;;
75386;SDS011;63966;47.914;22.266;2023-08-17T00:35:14;23.50;;;15.55;;
75386;SDS011;63966;47.914;22.266;2023-08-17T00:38:18;23.60;;;15.75;;
75386;SDS011;63966;47.914;22.266;2023-08-17T00:41:21;21.10;;;14.82;;
75386;SDS011;63966;47.914;22.266;2023-08-17T00:44:24;21.53;;;15.87;;
75386;SDS011;63966;47.914;22.266;2023-08-17T00:47:28;23.87;;;15.93;;
75386;SDS011;63966;47.914;22.266;2023-08-17T00:50:32;20.63;;;15.27;;
75386;SDS011;63966;47.914;22.266;2023-08-17T00:53:36;22.23;;;15.98;;
75386;SDS011;63966;47.914;22.266;2023-08-17T00:56:40;21.95;;;16.20;;
75386;SDS011;63966;47.914;22.266;2023-08-17T00:59:43;19.47;;;15.10;;
75386;SDS011;63966;47.914;22.266;2023-08-17T01:03:04;23.40;;;15.07;;
75386;SDS011;63966;47.914;22.266;2023-08-17T01:06:08;19.63;;;14.55;;
75386;SDS011;63966;47.914;22.266;2023-08-17T01:09:12;23.48;;;15.43;;
75386;SDS011;63966;47.914;22.266;2023-08-17T01:15:39;20.60;;;16.17;;
75386;SDS011;63966;47.914;22.266;2023-08-17T01:18:48;22.40;;;14.40;;
75386;SDS011;63966;47.914;22.266;2023-08-17T01:21:55;20.58;;;15.00;;
75386;SDS011;63966;47.914;22.266;2023-08-17T01:25:04;20.15;;;15.18;;
75386;SDS011;63966;47.914;22.266;2023-08-17T01:28:07;20.90;;;14.35;;
75386;SDS011;63966;47.914;22.266;2023-08-17T01:31:28;19.63;;;15.13;;
75386;SDS011;63966;47.914;22.266;2023-08-17T01:34:57;20.60;;;15.07;;
75386;SDS011;63966;47.914;22.266;2023-08-17T01:38:15;17.77;;;13.98;;
75386;SDS011;63966;47.914;22.266;2023-08-17T01:41:21;19.80;;;13.90;;
75386;SDS011;63966;47.914;22.266;2023-08-17T01:44:26;23.17;;;14.60;;
75386;SDS011;63966;47.914;22.266;2023-08-17T01:47:30;20.13;;;13.93;;
75386;SDS011;63966;47.914;22.266;2023-08-17T01:50:33;18.53;;;13.97;;
75386;SDS011;63966;47.914;22.266;2023-08-17T01:53:37;23.02;;;14.52;;
75386;SDS011;63966;47.914;22.266;2023-08-17T01:56:40;22.50;;;14.00;;
75386;SDS011;63966;47.914;22.266;2023-08-17T01:59:43;22.23;;;15.32;;
75386;SDS011;63966;47.914;22.266;2023-08-17T02:02:47;25.77;;;15.97;;
75386;SDS011;63966;47.914;22.266;2023-08-17T02:05:50;20.43;;;14.83;;
75386;SDS011;63966;47.914;22.266;2023-08-17T02:08:53;19.65;;;14.38;;
75386;SDS011;63966;47.914;22.266;2023-08-17T02:11:58;22.17;;;13.75;;
75386;SDS011;63966;47.914;22.266;2023-08-17T02:15:01;20.42;;;15.05;;
75386;SDS011;63966;47.914;22.266;2023-08-17T02:18:05;19.43;;;13.73;;
75386;SDS011;63966;47.914;22.266;2023-08-17T02:21:09;21.30;;;15.13;;
75386;SDS011;63966;47.914;22.266;2023-08-17T02:24:14;23.23;;;17.00;;
75386;SDS011;63966;47.914;22.266;2023-08-17T02:27:18;23.60;;;17.02;;
75386;SDS011;63966;47.914;22.266;2023-08-17T02:30:21;23.33;;;17.17;;
75386;SDS011;63966;47.914;22.266;2023-08-17T02:33:25;29.83;;;16.37;;
75386;SDS011;63966;47.914;22.266;2023-08-17T02:36:28;24.50;;;16.40;;
75386;SDS011;63966;47.914;22.266;2023-08-17T02:39:32;24.08;;;15.65;;
75386;SDS011;63966;47.914;22.266;2023-08-17T02:42:35;17.70;;;13.18;;
75386;SDS011;63966;47.914;22.266;2023-08-17T02:45:38;23.30;;;14.00;;
75386;SDS011;63966;47.914;22.266;2023-08-17T02:48:42;21.17;;;13.07;;
75386;SDS011;63966;47.914;22.266;2023-08-17T02:51:45;21.17;;;12.77;;
75386;SDS011;63966;47.914;22.266;2023-08-17T02:54:49;19.90;;;14.77;;
75386;SDS011;63966;47.914;22.266;2023-08-17T02:57:52;21.90;;;16.50;;
75386;SDS011;63966;47.914;22.266;2023-08-17T03:00:56;21.70;;;16.48;;
75386;SDS011;63966;47.914;22.266;2023-08-17T03:03:59;20.53;;;15.40;;
75386;SDS011;63966;47.914;22.266;2023-08-17T03:07:03;19.67;;;15.30;;
75386;SDS011;63966;47.914;22.266;2023-08-17T03:10:07;23.40;;;15.38;;
75386;SDS011;63966;47.914;22.266;2023-08-17T03:13:10;21.10;;;14.73;;
75386;SDS011;63966;47.914;22.266;2023-08-17T03:16:14;23.20;;;14.02;;
75386;SDS011;63966;47.914;22.266;2023-08-17T03:19:18;16.63;;;13.73;;
75386;SDS011;63966;47.914;22.266;2023-08-17T03:22:21;19.13;;;14.10;;
75386;SDS011;63966;47.914;22.266;2023-08-17T03:25:25;20.58;;;14.82;;
75386;SDS011;63966;47.914;22.266;2023-08-17T03:28:28;18.33;;;13.45;;
75386;SDS011;63966;47.914;22.266;2023-08-17T03:31:31;19.17;;;14.13;;
75386;SDS011;63966;47.914;22.266;2023-08-17T03:34:36;21.90;;;16.10;;
75386;SDS011;63966;47.914;22.266;2023-08-17T03:37:39;25.07;;;16.73;;
75386;SDS011;63966;47.914;22.266;2023-08-17T03:40:44;23.60;;;16.25;;
75386;SDS011;63966;47.914;22.266;2023-08-17T03:43:48;24.83;;;15.98;;
75386;SDS011;63966;47.914;22.266;2023-08-17T03:46:52;17.70;;;14.25;;
75386;SDS011;63966;47.914;22.266;2023-08-17T03:49:56;21.13;;;13.73;;
75386;SDS011;63966;47.914;22.266;2023-08-17T03:52:59;17.00;;;12.90;;
75386;SDS011;63966;47.914;22.266;2023-08-17T03:56:02;21.00;;;13.45;;
75386;SDS011;63966;47.914;22.266;2023-08-17T03:59:06;18.88;;;13.38;;
75386;SDS011;63966;47.914;22.266;2023-08-17T04:02:09;18.52;;;15.25;;
75386;SDS011;63966;47.914;22.266;2023-08-17T04:05:13;20.13;;;15.80;;
75386;SDS011;63966;47.914;22.266;2023-08-17T04:08:17;23.67;;;16.33;;
75386;SDS011;63966;47.914;22.266;2023-08-17T04:11:20;24.50;;;16.08;;
75386;SDS011;63966;47.914;22.266;2023-08-17T04:14:25;26.25;;;16.98;;
75386;SDS011;63966;47.914;22.266;2023-08-17T04:17:30;27.17;;;16.60;;
75386;SDS011;63966;47.914;22.266;2023-08-17T04:20:33;21.90;;;16.00;;
75386;SDS011;63966;47.914;22.266;2023-08-17T04:23:37;22.57;;;16.77;;
75386;SDS011;63966;47.914;22.266;2023-08-17T04:26:40;24.50;;;16.58;;
75386;SDS011;63966;47.914;22.266;2023-08-17T04:29:44;24.77;;;17.00;;
75386;SDS011;63966;47.914;22.266;2023-08-17T04:32:48;23.85;;;16.60;;
75386;SDS011;63966;47.914;22.266;2023-08-17T04:35:55;23.70;;;16.70;;
75386;SDS011;63966;47.914;22.266;2023-08-17T04:38:58;23.67;;;17.00;;
75386;SDS011;63966;47.914;22.266;2023-08-17T04:42:05;23.42;;;17.08;;
75386;SDS011;63966;47.914;22.266;2023-08-17T04:45:09;24.63;;;17.08;;
75386;SDS011;63966;47.914;22.266;2023-08-17T04:48:16;23.30;;;16.17;;
75386;SDS011;63966;47.914;22.266;2023-08-17T04:51:21;22.63;;;16.47;;
75386;SDS011;63966;47.914;22.266;2023-08-17T04:54:24;22.27;;;16.07;;
75386;SDS011;63966;47.914;22.266;2023-08-17T04:57:27;24.75;;;16.55;;
75386;SDS011;63966;47.914;22.266;2023-08-17T05:00:31;20.83;;;16.75;;
75386;SDS011;63966;47.914;22.266;2023-08-17T05:03:35;23.33;;;16.15;;
75386;SDS011;63966;47.914;22.266;2023-08-17T05:06:39;22.33;;;17.40;;
75386;SDS011;63966;47.914;22.266;2023-08-17T05:09:43;23.97;;;15.60;;
75386;SDS011;63966;47.914;22.266;2023-08-17T05:12:46;22.48;;;16.05;;
75386;SDS011;63966;47.914;22.266;2023-08-17T05:15:49;18.38;;;13.88;;
75386;SDS011;63966;47.914;22.266;2023-08-17T05:18:54;20.73;;;15.02;;
75386;SDS011;63966;47.914;22.266;2023-08-17T05:21:58;21.43;;;15.50;;
75386;SDS011;63966;47.914;22.266;2023-08-17T05:25:02;22.50;;;14.87;;
75386;SDS011;63966;47.914;22.266;2023-08-17T05:28:07;22.58;;;15.57;;
75386;SDS011;63966;47.914;22.266;2023-08-17T05:31:11;23.50;;;15.63;;
75386;SDS011;63966;47.914;22.266;2023-08-17T05:34:17;21.48;;;15.15;;
75386;SDS011;63966;47.914;22.266;2023-08-17T05:37:20;21.57;;;13.90;;
75386;SDS011;63966;47.914;22.266;2023-08-17T05:40:25;22.13;;;14.23;;
75386;SDS011;63966;47.914;22.266;2023-08-17T05:43:28;20.67;;;14.70;;
75386;SDS011;63966;47.914;22.266;2023-08-17T05:46:32;21.23;;;15.43;;
75386;SDS011;63966;47.914;22.266;2023-08-17T05:49:36;21.25;;;15.75;;
75386;SDS011;63966;47.914;22.266;2023-08-17T05:52:40;21.07;;;14.97;;
75386;SDS011;63966;47.914;22.266;2023-08-17T05:55:43;22.67;;;15.23;;
75386;SDS011;63966;47.914;22.266;2023-08-17T05:58:47;24.35;;;15.57;;
75386;SDS011;63966;47.914;22.266;2023-08-17T06:01:50;20.95;;;14.30;;
75386;SDS011;63966;47.914;22.266;2023-08-17T06:04:54;22.98;;;15.25;;
75386;SDS011;63966;47.914;22.266;2023-08-17T06:07:57;22.97;;;15.20;;
75386;SDS011;63966;47.914;22.266;2023-08-17T06:11:01;20.90;;;14.37;;
75386;SDS011;63966;47.914;22.266;2023-08-17T06:14:04;22.15;;;15.00;;
75386;SDS011;63966;47.914;22.266;2023-08-17T06:17:08;23.20;;;13.95;;
75386;SDS011;63966;47.914;22.266;2023-08-17T06:20:11;26.20;;;14.27;;
75386;SDS011;63966;47.914;22.266;2023-08-17T06:23:16;24.57;;;14.10;;
75386;SDS011;63966;47.914;22.266;2023-08-17T06:26:19;22.33;;;14.73;;
75386;SDS011;63966;47.914;22.266;2023-08-17T06:29:23;20.80;;;13.98;;
75386;SDS011;63966;47.914;22.266;2023-08-17T06:32:26;24.92;;;14.80;;
75386;SDS011;63966;47.914;22.266;2023-08-17T06:35:30;23.33;;;13.63;;
75386;SDS011;63966;47.914;22.266;2023-08-17T06:38:33;22.07;;;13.10;;
75386;SDS011;63966;47.914;22.266;2023-08-17T06:41:37;21.10;;;12.97;;
75386;SDS011;63966;47.914;22.266;2023-08-17T06:44:40;21.42;;;13.05;;
75386;SDS011;63966;47.914;22.266;2023-08-17T06:47:44;21.95;;;12.63;;
75386;SDS011;63966;47.914;22.266;2023-08-17T06:50:48;18.40;;;12.57;;
75386;SDS011;63966;47.914;22.266;2023-08-17T06:53:51;20.80;;;13.17;;
75386;SDS011;63966;47.914;22.266;2023-08-17T06:56:55;17.43;;;13.10;;
75386;SDS011;63966;47.914;22.266;2023-08-17T07:00:00;19.35;;;12.55;;
75386;SDS011;63966;47.914;22.266;2023-08-17T07:03:03;19.50;;;11.50;;
75386;SDS011;63966;47.914;22.266;2023-08-17T07:06:08;17.17;;;11.05;;
75386;SDS011;63966;47.914;22.266;2023-08-17T07:09:12;16.52;;;12.02;;
75386;SDS011;63966;47.914;22.266;2023-08-17T07:12:15;16.93;;;11.97;;
75386;SDS011;63966;47.914;22.266;2023-08-17T07:15:19;16.20;;;11.23;;
75386;SDS011;63966;47.914;22.266;2023-08-17T07:18:22;15.43;;;11.13;;
75386;SDS011;63966;47.914;22.266;2023-08-17T07:21:25;14.82;;;11.68;;
75386;SDS011;63966;47.914;22.266;2023-08-17T07:24:29;16.50;;;11.30;;
75386;SDS011;63966;47.914;22.266;2023-08-17T07:27:32;16.37;;;11.27;;
75386;SDS011;63966;47.914;22.266;2023-08-17T07:30:35;18.70;;;11.90;;
75386;SDS011;63966;47.914;22.266;2023-08-17T07:33:39;16.95;;;12.35;;
75386;SDS011;63966;47.914;22.266;2023-08-17T07:36:43;16.80;;;11.82;;
75386;SDS011;63966;47.914;22.266;2023-08-17T07:39:46;16.85;;;11.75;;
75386;SDS011;63966;47.914;22.266;2023-08-17T07:42:49;15.53;;;11.37;;
75386;SDS011;63966;47.914;22.266;2023-08-17T07:45:56;16.58;;;10.68;;
75386;SDS011;63966;47.914;22.266;2023-08-17T07:49:00;17.67;;;11.82;;
75386;SDS011;63966;47.914;22.266;2023-08-17T07:52:03;17.63;;;11.40;;
75386;SDS011;63966;47.914;22.266;2023-08-17T07:55:07;15.13;;;10.35;;
75386;SDS011;63966;47.914;22.266;2023-08-17T07:58:10;17.83;;;11.63;;
75386;SDS011;63966;47.914;22.266;2023-08-17T08:01:14;15.13;;;10.57;;
75386;SDS011;63966;47.914;22.266;2023-08-17T08:04:17;16.10;;;10.88;;
75386;SDS011;63966;47.914;22.266;2023-08-17T08:07:20;18.20;;;10.75;;
75386;SDS011;63966;47.914;22.266;2023-08-17T08:10:24;15.45;;;9.85;;
75386;SDS011;63966;47.914;22.266;2023-08-17T08:13:27;17.13;;;10.60;;
75386;SDS011;63966;47.914;22.266;2023-08-17T08:16:30;16.17;;;10.63;;
75386;SDS011;63966;47.914;22.266;2023-08-17T08:19:34;17.42;;;11.20;;
75386;SDS011;63966;47.914;22.266;2023-08-17T08:22:37;16.30;;;10.85;;
75386;SDS011;63966;47.914;22.266;2023-08-17T08:25:41;12.65;;;9.30;;
75386;SDS011;63966;47.914;22.266;2023-08-17T08:28:44;17.40;;;9.97;;
75386;SDS011;63966;47.914;22.266;2023-08-17T08:31:48;17.75;;;9.75;;
75386;SDS011;63966;47.914;22.266;2023-08-17T08:34:51;13.77;;;9.57;;
75386;SDS011;63966;47.914;22.266;2023-08-17T08:37:54;15.63;;;9.77;;
75386;SDS011;63966;47.914;22.266;2023-08-17T08:40:58;15.55;;;10.23;;
75386;SDS011;63966;47.914;22.266;2023-08-17T08:44:03;14.73;;;9.93;;
75386;SDS011;63966;47.914;22.266;2023-08-17T08:47:06;16.55;;;10.02;;
75386;SDS011;63966;47.914;22.266;2023-08-17T08:50:11;12.48;;;10.00;;
75386;SDS011;63966;47.914;22.266;2023-08-17T08:53:24;16.25;;;10.13;;
75386;SDS011;63966;47.914;22.266;2023-08-17T08:56:37;15.15;;;9.95;;
75386;SDS011;63966;47.914;22.266;2023-08-17T08:59:49;12.07;;;8.57;;
75386;SDS011;63966;47.914;22.266;2023-08-17T09:02:58;14.73;;;8.52;;
75386;SDS011;63966;47.914;22.266;2023-08-17T09:06:04;11.75;;;8.63;;
75386;SDS011;63966;47.914;22.266;2023-08-17T09:09:08;13.45;;;8.85;;
75386;SDS011;63966;47.914;22.266;2023-08-17T09:12:12;15.85;;;9.52;;
75386;SDS011;63966;47.914;22.266;2023-08-17T09:15:27;15.17;;;9.47;;
75386;SDS011;63966;47.914;22.266;2023-08-17T09:18:30;14.75;;;9.93;;
75386;SDS011;63966;47.914;22.266;2023-08-17T09:21:40;16.17;;;9.70;;
75386;SDS011;63966;47.914;22.266;2023-08-17T09:24:43;12.02;;;9.10;;
75386;SDS011;63966;47.914;22.266;2023-08-17T09:27:46;16.95;;;10.15;;
75386;SDS011;63966;47.914;22.266;2023-08-17T09:30:54;13.17;;;9.37;;
75386;SDS011;63966;47.914;22.266;2023-08-17T09:33:58;12.90;;;9.20;;
75386;SDS011;63966;47.914;22.266;2023-08-17T09:37:07;16.27;;;9.73;;
75386;SDS011;63966;47.914;22.266;2023-08-17T09:40:11;17.92;;;10.48;;
75386;SDS011;63966;47.914;22.266;2023-08-17T09:43:14;14.25;;;10.15;;
75386;SDS011;63966;47.914;22.266;2023-08-17T09:46:18;13.03;;;9.03;;
75386;SDS011;63966;47.914;22.266;2023-08-17T09:49:25;15.73;;;9.60;;
75386;SDS011;63966;47.914;22.266;2023-08-17T09:52:38;16.08;;;9.43;;
75386;SDS011;63966;47.914;22.266;2023-08-17T09:55:42;14.00;;;9.35;;
75386;SDS011;63966;47.914;22.266;2023-08-17T09:58:46;13.70;;;9.90;;
75386;SDS011;63966;47.914;22.266;2023-08-17T10:01:50;16.17;;;9.60;;
75386;SDS011;63966;47.914;22.266;2023-08-17T10:04:57;18.67;;;9.68;;
75386;SDS011;63966;47.914;22.266;2023-08-17T10:08:01;15.48;;;9.85;;
75386;SDS011;63966;47.914;22.266;2023-08-17T10:11:06;15.35;;;9.93;;
75386;SDS011;63966;47.914;22.266;2023-08-17T10:14:16;11.82;;;9.40;;
75386;SDS011;63966;47.914;22.266;2023-08-17T10:17:26;14.53;;;9.90;;
75386;SDS011;63966;47.914;22.266;2023-08-17T10:20:34;15.05;;;9.88;;
75386;SDS011;63966;47.914;22.266;2023-08-17T10:23:41;14.25;;;9.23;;
75386;SDS011;63966;47.914;22.266;2023-08-17T10:26:46;17.83;;;10.13;;
75386;SDS011;63966;47.914;22.266;2023-08-17T10:29:55;14.80;;;9.88;;
75386;SDS011;63966;47.914;22.266;2023-08-17T10:33:00;14.00;;;9.63;;
75386;SDS011;63966;47.914;22.266;2023-08-17T10:36:06;12.85;;;9.38;;
75386;SDS011;63966;47.914;22.266;2023-08-17T10:39:28;13.80;;;9.25;;
75386;SDS011;63966;47.914;22.266;2023-08-17T10:42:33;12.30;;;7.93;;
75386;SDS011;63966;47.914;22.266;2023-08-17T10:45:38;12.20;;;8.18;;
75386;SDS011;63966;47.914;22.266;2023-08-17T10:48:45;9.93;;;7.33;;
75386;SDS011;63966;47.914;22.266;2023-08-17T10:52:04;15.40;;;7.75;;
75386;SDS011;63966;47.914;22.266;2023-08-17T10:55:11;10.95;;;7.43;;
75386;SDS011;63966;47.914;22.266;2023-08-17T10:58:15;12.45;;;9.18;;
75386;SDS011;63966;47.914;22.266;2023-08-17T11:01:31;12.73;;;9.88;;
75386;SDS011;63966;47.914;22.266;2023-08-17T11:04:39;18.80;;;10.10;;
75386;SDS011;63966;47.914;22.266;2023-08-17T11:07:43;12.82;;;9.68;;
75386;SDS011;63966;47.914;22.266;2023-08-17T11:10:48;11.77;;;8.63;;
75386;SDS011;63966;47.914;22.266;2023-08-17T11:14:07;12.73;;;10.55;;
75386;SDS011;63966;47.914;22.266;2023-08-17T11:17:11;15.38;;;10.13;;
75386;SDS011;63966;47.914;22.266;2023-08-17T11:20:15;14.77;;;9.87;;
75386;SDS011;63966;47.914;22.266;2023-08-17T11:23:18;12.98;;;9.93;;
75386;SDS011;63966;47.914;22.266;2023-08-17T11:26:27;12.27;;;9.68;;
75386;SDS011;63966;47.914;22.266;2023-08-17T11:29:37;14.30;;;8.93;;
75386;SDS011;63966;47.914;22.266;2023-08-17T11:32:45;14.32;;;9.43;;
75386;SDS011;63966;47.914;22.266;2023-08-17T11:35:55;14.43;;;8.83;;
75386;SDS011;63966;47.914;22.266;2023-08-17T11:39:04;13.48;;;9.10;;
75386;SDS011;63966;47.914;22.266;2023-08-17T11:42:11;17.10;;;9.52;;
75386;SDS011;63966;47.914;22.266;2023-08-17T11:45:21;12.00;;;8.52;;
75386;SDS011;63966;47.914;22.266;2023-08-17T11:48:29;11.45;;;8.23;;
75386;SDS011;63966;47.914;22.266;2023-08-17T11:51:38;14.73;;;8.67;;
75386;SDS011;63966;47.914;22.266;2023-08-17T11:54:44;13.85;;;8.73;;
75386;SDS011;63966;47.914;22.266;2023-08-17T11:57:53;12.60;;;8.70;;
75386;SDS011;63966;47.914;22.266;2023-08-17T12:00:56;15.85;;;8.70;;
75386;SDS011;63966;47.914;22.266;2023-08-17T12:04:00;15.35;;;8.55;;
75386;SDS011;63966;47.914;22.266;2023-08-17T12:07:06;12.77;;;7.50;;
75386;SDS011;63966;47.914;22.266;2023-08-17T12:10:09;9.98;;;7.50;;
75386;SDS011;63966;47.914;22.266;2023-08-17T12:13:13;10.73;;;8.35;;
75386;SDS011;63966;47.914;22.266;2023-08-17T12:16:17;12.75;;;8.07;;
75386;SDS011;63966;47.914;22.266;2023-08-17T12:19:22;12.32;;;8.20;;
75386;SDS011;63966;47.914;22.266;2023-08-17T12:22:27;12.67;;;7.73;;
75386;SDS011;63966;47.914;22.266;2023-08-17T12:25:31;12.40;;;8.35;;
75386;SDS011;63966;47.914;22.266;2023-08-17T12:28:35;10.95;;;7.75;;
75386;SDS011;63966;47.914;22.266;2023-08-17T12:31:38;11.35;;;7.43;;
75386;SDS011;63966;47.914;22.266;2023-08-17T12:34:42;12.23;;;7.75;;
75386;SDS011;63966;47.914;22.266;2023-08-17T12:37:45;11.47;;;7.73;;
75386;SDS011;63966;47.914;22.266;2023-08-17T12:40:49;11.27;;;7.40;;
75386;SDS011;63966;47.914;22.266;2023-08-17T12:43:53;12.75;;;7.68;;
75386;SDS011;63966;47.914;22.266;2023-08-17T12:46:56;10.38;;;7.30;;
75386;SDS011;63966;47.914;22.266;2023-08-17T12:50:00;12.70;;;7.60;;
75386;SDS011;63966;47.914;22.266;2023-08-17T12:53:05;12.03;;;6.93;;
75386;SDS011;63966;47.914;22.266;2023-08-17T12:56:09;12.75;;;7.20;;
75386;SDS011;63966;47.914;22.266;2023-08-17T12:59:13;10.10;;;6.90;;
75386;SDS011;63966;47.914;22.266;2023-08-17T13:02:16;14.35;;;6.97;;
75386;SDS011;63966;47.914;22.266;2023-08-17T13:05:20;10.45;;;7.70;;
75386;SDS011;63966;47.914;22.266;2023-08-17T13:08:23;15.47;;;7.70;;
75386;SDS011;63966;47.914;22.266;2023-08-17T13:11:26;9.52;;;7.13;;
75386;SDS011;63966;47.914;22.266;2023-08-17T13:14:30;11.40;;;7.03;;
75386;SDS011;63966;47.914;22.266;2023-08-17T13:17:33;10.90;;;6.80;;
75386;SDS011;63966;47.914;22.266;2023-08-17T13:20:37;9.77;;;6.32;;
75386;SDS011;63966;47.914;22.266;2023-08-17T13:23:42;9.87;;;6.50;;
75386;SDS011;63966;47.914;22.266;2023-08-17T13:26:46;14.00;;;6.90;;
75386;SDS011;63966;47.914;22.266;2023-08-17T13:29:53;8.80;;;6.68;;
75386;SDS011;63966;47.914;22.266;2023-08-17T13:32:56;12.20;;;6.63;;
75386;SDS011;63966;47.914;22.266;2023-08-17T13:36:00;11.98;;;6.80;;
75386;SDS011;63966;47.914;22.266;2023-08-17T13:39:04;10.57;;;6.07;;
75386;SDS011;63966;47.914;22.266;2023-08-17T13:42:08;13.73;;;6.88;;
75386;SDS011;63966;47.914;22.266;2023-08-17T13:45:11;10.27;;;6.78;;
75386;SDS011;63966;47.914;22.266;2023-08-17T13:48:15;11.93;;;6.80;;
75386;SDS011;63966;47.914;22.266;2023-08-17T13:51:18;11.77;;;6.50;;
75386;SDS011;63966;47.914;22.266;2023-08-17T13:54:22;11.17;;;6.83;;
75386;SDS011;63966;47.914;22.266;2023-08-17T13:57:26;9.25;;;6.75;;
75386;SDS011;63966;47.914;22.266;2023-08-17T14:00:29;10.55;;;6.70;;
75386;SDS011;63966;47.914;22.266;2023-08-17T14:03:33;10.80;;;6.53;;
75386;SDS011;63966;47.914;22.266;2023-08-17T14:06:36;12.85;;;6.80;;
75386;SDS011;63966;47.914;22.266;2023-08-17T14:09:43;9.17;;;6.10;;
75386;SDS011;63966;47.914;22.266;2023-08-17T14:13:03;13.13;;;6.53;;
75386;SDS011;63966;47.914;22.266;2023-08-17T14:16:06;11.27;;;6.93;;
75386;SDS011;63966;47.914;22.266;2023-08-17T14:19:10;11.43;;;6.88;;
75386;SDS011;63966;47.914;22.266;2023-08-17T14:22:14;13.07;;;6.40;;
75386;SDS011;63966;47.914;22.266;2023-08-17T14:25:17;10.90;;;5.90;;
75386;SDS011;63966;47.914;22.266;2023-08-17T14:28:20;10.15;;;6.32;;
75386;SDS011;63966;47.914;22.266;2023-08-17T14:31:24;11.25;;;7.03;;
75386;SDS011;63966;47.914;22.266;2023-08-17T14:34:27;13.07;;;6.57;;
75386;SDS011;63966;47.914;22.266;2023-08-17T14:37:31;10.80;;;6.70;;
75386;SDS011;63966;47.914;22.266;2023-08-17T14:40:35;13.27;;;6.87;;
75386;SDS011;63966;47.914;22.266;2023-08-17T14:43:44;14.07;;;6.55;;
75386;SDS011;63966;47.914;22.266;2023-08-17T14:46:47;9.77;;;6.35;;
75386;SDS011;63966;47.914;22.266;2023-08-17T14:49:50;16.73;;;10.63;;
75386;SDS011;63966;47.914;22.266;2023-08-17T14:52:55;19.75;;;10.27;;
75386;SDS011;63966;47.914;22.266;2023-08-17T14:55:59;19.20;;;10.13;;
75386;SDS011;63966;47.914;22.266;2023-08-17T14:59:02;13.18;;;8.02;;
75386;SDS011;63966;47.914;22.266;2023-08-17T15:02:11;11.43;;;7.10;;
75386;SDS011;63966;47.914;22.266;2023-08-17T15:05:16;13.15;;;7.57;;
75386;SDS011;63966;47.914;22.266;2023-08-17T15:08:19;16.13;;;7.55;;
75386;SDS011;63966;47.914;22.266;2023-08-17T15:11:23;15.40;;;8.57;;
75386;SDS011;63966;47.914;22.266;2023-08-17T15:14:26;21.45;;;8.00;;
75386;SDS011;63966;47.914;22.266;2023-08-17T15:17:30;21.00;;;8.20;;
75386;SDS011;63966;47.914;22.266;2023-08-17T15:20:33;17.70;;;9.40;;
75386;SDS011;63966;47.914;22.266;2023-08-17T15:23:36;16.80;;;8.68;;
75386;SDS011;63966;47.914;22.266;2023-08-17T15:26:40;14.90;;;8.77;;
75386;SDS011;63966;47.914;22.266;2023-08-17T15:29:43;13.43;;;8.90;;
75386;SDS011;63966;47.914;22.266;2023-08-17T15:32:47;15.95;;;10.13;;
75386;SDS011;63966;47.914;22.266;2023-08-17T15:35:50;18.38;;;10.27;;
75386;SDS011;63966;47.914;22.266;2023-08-17T15:38:53;15.53;;;10.03;;
75386;SDS011;63966;47.914;22.266;2023-08-17T15:41:57;16.37;;;10.90;;
75386;SDS011;63966;47.914;22.266;2023-08-17T15:45:00;17.60;;;11.85;;
75386;SDS011;63966;47.914;22.266;2023-08-17T15:48:04;18.35;;;12.40;;
75386;SDS011;63966;47.914;22.266;2023-08-17T15:51:08;17.00;;;11.52;;
75386;SDS011;63966;47.914;22.266;2023-08-17T15:54:11;17.80;;;11.30;;
75386;SDS011;63966;47.914;22.266;2023-08-17T15:57:31;16.00;;;12.10;;
75386;SDS011;63966;47.914;22.266;2023-08-17T16:00:34;15.23;;;11.23;;
75386;SDS011;63966;47.914;22.266;2023-08-17T16:03:37;15.90;;;11.52;;
75386;SDS011;63966;47.914;22.266;2023-08-17T16:06:41;15.82;;;10.77;;
75386;SDS011;63966;47.914;22.266;2023-08-17T16:09:46;17.93;;;11.10;;
75386;SDS011;63966;47.914;22.266;2023-08-17T16:12:49;18.63;;;11.17;;
75386;SDS011;63966;47.914;22.266;2023-08-17T16:15:52;16.25;;;12.02;;
75386;SDS011;63966;47.914;22.266;2023-08-17T16:18:56;16.00;;;11.18;;
75386;SDS011;63966;47.914;22.266;2023-08-17T16:22:04;15.77;;;12.07;;
75386;SDS011;63966;47.914;22.266;2023-08-17T16:25:08;15.02;;;11.65;;
75386;SDS011;63966;47.914;22.266;2023-08-17T16:28:11;15.13;;;11.50;;
75386;SDS011;63966;47.914;22.266;2023-08-17T16:31:15;16.77;;;11.13;;
75386;SDS011;63966;47.914;22.266;2023-08-17T16:34:18;14.75;;;11.07;;
75386;SDS011;63966;47.914;22.266;2023-08-17T16:37:22;15.68;;;10.65;;
75386;SDS011;63966;47.914;22.266;2023-08-17T16:40:26;15.23;;;11.45;;
75386;SDS011;63966;47.914;22.266;2023-08-17T16:43:39;12.20;;;8.30;;
75386;SDS011;63966;47.914;22.266;2023-08-17T16:46:43;12.25;;;8.65;;
75386;SDS011;63966;47.914;22.266;2023-08-17T16:49:46;12.02;;;7.65;;
75386;SDS011;63966;47.914;22.266;2023-08-17T16:52:50;11.23;;;7.78;;
75386;SDS011;63966;47.914;22.266;2023-08-17T16:55:54;9.37;;;7.50;;
75386;SDS011;63966;47.914;22.266;2023-08-17T16:58:57;13.17;;;7.83;;
75386;SDS011;63966;47.914;22.266;2023-08-17T17:02:03;9.48;;;7.40;;
75386;SDS011;63966;47.914;22.266;2023-08-17T17:05:14;11.40;;;7.88;;
75386;SDS011;63966;47.914;22.266;2023-08-17T17:08:18;11.77;;;8.13;;
75386;SDS011;63966;47.914;22.266;2023-08-17T17:11:23;13.27;;;8.00;;
75386;SDS011;63966;47.914;22.266;2023-08-17T17:14:26;11.67;;;8.37;;
75386;SDS011;63966;47.914;22.266;2023-08-17T17:17:29;12.40;;;9.05;;
75386;SDS011;63966;47.914;22.266;2023-08-17T17:20:33;11.85;;;9.07;;
75386;SDS011;63966;47.914;22.266;2023-08-17T17:23:36;13.55;;;8.98;;
75386;SDS011;63966;47.914;22.266;2023-08-17T17:26:40;12.20;;;9.20;;
75386;SDS011;63966;47.914;22.266;2023-08-17T17:29:43;14.50;;;9.80;;
75386;SDS011;63966;47.914;22.266;2023-08-17T17:32:46;14.40;;;9.73;;
75386;SDS011;63966;47.914;22.266;2023-08-17T17:35:50;14.05;;;9.25;;
75386;SDS011;63966;47.914;22.266;2023-08-17T17:38:53;11.27;;;8.90;;
75386;SDS011;63966;47.914;22.266;2023-08-17T17:41:57;13.07;;;9.80;;
75386;SDS011;63966;47.914;22.266;2023-08-17T17:45:00;14.03;;;9.57;;
75386;SDS011;63966;47.914;22.266;2023-08-17T17:48:04;12.38;;;9.63;;
75386;SDS011;63966;47.914;22.266;2023-08-17T17:51:07;15.60;;;10.10;;
75386;SDS011;63966;47.914;22.266;2023-08-17T17:54:11;13.57;;;9.13;;